createdAt,value
2023-02-05T00:01:25.794Z,11.38
2023-02-05T00:03:52.848Z,9.95
2023-02-05T00:06:19.851Z,8.82
2023-02-05T00:08:47.073Z,9.48
2023-02-05T00:11:14.122Z,8.95
2023-02-05T00:13:42.211Z,10.15
2023-02-05T00:16:09.482Z,9.95
2023-02-05T00:18:41.769Z,10.65
2023-02-05T00:21:08.978Z,11.63
2023-02-05T00:23:36.619Z,10.85
2023-02-05T00:26:04.830Z,11.45
2023-02-05T00:28:33.116Z,11.85
2023-02-05T00:31:00.568Z,10.63
2023-02-05T00:33:27.836Z,11.82
2023-02-05T00:35:54.896Z,13.73
2023-02-05T00:38:21.937Z,13.05
2023-02-05T00:40:49.102Z,11.73
2023-02-05T00:43:16.148Z,11.25
2023-02-05T00:45:43.314Z,13.07
2023-02-05T00:48:10.372Z,12.38
2023-02-05T00:50:37.449Z,11.48
2023-02-05T00:53:04.713Z,12.75
2023-02-05T00:55:31.890Z,11.40
2023-02-05T00:57:59.112Z,12.23
2023-02-05T01:00:26.876Z,11.38
2023-02-05T01:02:54.282Z,12.02
2023-02-05T01:05:21.284Z,12.50
2023-02-05T01:07:48.337Z,12.18
2023-02-05T01:10:15.477Z,11.52
2023-02-05T01:12:42.568Z,10.93
2023-02-05T01:15:10.464Z,12.18
2023-02-05T01:17:37.500Z,12.80
2023-02-05T01:20:05.878Z,12.00
2023-02-05T01:22:33.197Z,12.50
2023-02-05T01:25:00.223Z,11.50
2023-02-05T01:27:27.296Z,11.18
2023-02-05T01:29:54.493Z,11.63
2023-02-05T01:32:21.707Z,12.60
2023-02-05T01:34:48.795Z,11.25
2023-02-05T01:37:15.839Z,11.93
2023-02-05T01:39:42.968Z,11.35
2023-02-05T01:42:21.176Z,12.07
2023-02-05T01:45:06.817Z,12.95
2023-02-05T01:47:33.844Z,11.80
2023-02-05T01:50:00.924Z,12.60
2023-02-05T01:52:28.013Z,11.23
2023-02-05T01:54:55.112Z,11.63
2023-02-05T01:57:25.299Z,12.10
2023-02-05T01:59:52.483Z,11.93
2023-02-05T02:02:19.604Z,12.48
2023-02-05T02:04:57.339Z,12.30
2023-02-05T02:07:25.325Z,12.07
2023-02-05T02:09:53.265Z,11.63
2023-02-05T02:12:23.523Z,11.73
2023-02-05T02:14:52.306Z,12.77
2023-02-05T02:17:20.110Z,11.35
2023-02-05T02:19:50.149Z,13.65
2023-02-05T02:22:30.339Z,11.73
2023-02-05T02:25:09.309Z,12.50
2023-02-05T02:27:40.543Z,12.20
2023-02-05T02:30:14.797Z,12.52
2023-02-05T02:32:41.845Z,12.80
2023-02-05T02:35:17.831Z,11.63
2023-02-05T02:37:53.354Z,11.77
2023-02-05T02:40:26.188Z,11.25
2023-02-05T02:42:57.903Z,8.90
2023-02-05T02:45:26.621Z,12.70
2023-02-05T02:47:56.475Z,12.55
2023-02-05T02:50:34.492Z,12.10
2023-02-05T02:53:24.837Z,11.88
2023-02-05T02:55:53.234Z,10.88
2023-02-05T02:58:28.330Z,11.15
2023-02-05T03:00:55.844Z,12.70
2023-02-05T03:03:25.224Z,11.45
2023-02-05T03:05:53.242Z,11.52
2023-02-05T03:08:23.039Z,11.60
2023-02-05T03:11:03.106Z,11.30
2023-02-05T03:13:30.513Z,11.90
2023-02-05T03:15:57.659Z,12.27
2023-02-05T03:18:25.168Z,11.32
2023-02-05T03:20:54.009Z,12.52
2023-02-05T03:23:21.038Z,11.43
2023-02-05T03:25:48.096Z,11.02
2023-02-05T03:28:15.344Z,11.65
2023-02-05T03:30:54.463Z,11.18
2023-02-05T03:33:33.399Z,10.70
2023-02-05T03:36:03.151Z,12.15
2023-02-05T03:38:39.843Z,12.38
2023-02-05T03:41:12.985Z,11.75
2023-02-05T03:43:50.740Z,12.30
2023-02-05T03:46:28.418Z,11.95
2023-02-05T03:49:15.043Z,12.05
2023-02-05T03:51:56.621Z,11.88
2023-02-05T03:54:30.061Z,11.63
2023-02-05T03:56:57.091Z,11.77
2023-02-05T03:59:25.206Z,11.80
2023-02-05T04:01:52.751Z,12.40
2023-02-05T04:04:20.261Z,12.20
2023-02-05T04:06:48.173Z,11.85
2023-02-05T04:09:15.194Z,12.50
2023-02-05T04:11:42.328Z,12.20
2023-02-05T04:14:09.371Z,13.18
2023-02-05T04:16:37.645Z,13.05
2023-02-05T04:19:04.740Z,13.20
2023-02-05T04:21:31.757Z,13.10
2023-02-05T04:23:58.763Z,13.35
2023-02-05T04:26:25.923Z,12.35
2023-02-05T04:28:52.959Z,12.55
2023-02-05T04:31:20.131Z,13.00
2023-02-05T04:33:47.146Z,12.50
2023-02-05T04:36:17.005Z,11.38
2023-02-05T04:38:44.139Z,10.90
2023-02-05T04:41:11.159Z,12.13
2023-02-05T04:43:38.200Z,12.25
2023-02-05T04:46:06.302Z,11.20
2023-02-05T04:48:33.445Z,12.02
2023-02-05T04:51:00.538Z,12.10
2023-02-05T04:53:27.564Z,13.73
2023-02-05T04:56:04.119Z,13.45
2023-02-05T04:58:31.116Z,12.82
2023-02-05T05:00:58.204Z,12.68
2023-02-05T05:03:25.385Z,12.98
2023-02-05T05:05:52.485Z,12.13
2023-02-05T05:08:19.494Z,12.60
2023-02-05T05:10:46.523Z,12.88
2023-02-05T05:13:13.496Z,13.13
2023-02-05T05:15:40.535Z,12.82
2023-02-05T05:18:07.535Z,12.07
2023-02-05T05:20:34.582Z,12.85
2023-02-05T05:23:01.733Z,13.30
2023-02-05T05:25:28.738Z,13.35
2023-02-05T05:27:55.785Z,12.18
2023-02-05T05:30:22.817Z,12.00
2023-02-05T05:32:49.848Z,11.32
2023-02-05T05:35:16.863Z,11.75
2023-02-05T05:37:43.852Z,12.43
2023-02-05T05:40:31.753Z,12.32
2023-02-05T05:43:17.619Z,11.75
2023-02-05T05:45:44.653Z,11.32
2023-02-05T05:48:11.718Z,10.75
2023-02-05T05:50:38.782Z,11.43
2023-02-05T05:53:05.791Z,10.20
2023-02-05T05:55:33.194Z,10.68
2023-02-05T05:58:00.412Z,11.23
2023-02-05T06:00:27.467Z,11.45
2023-02-05T06:02:54.495Z,11.10
2023-02-05T06:05:21.612Z,11.15
2023-02-05T06:07:48.641Z,11.57
2023-02-05T06:10:15.773Z,11.00
2023-02-05T06:12:42.853Z,12.07
2023-02-05T06:15:10.104Z,11.55
2023-02-05T06:17:37.125Z,11.95
2023-02-05T06:20:04.775Z,11.63
2023-02-05T06:22:31.824Z,11.90
2023-02-05T06:24:58.841Z,10.43
2023-02-05T06:27:25.857Z,10.95
2023-02-05T06:29:52.907Z,10.60
2023-02-05T06:32:21.419Z,10.60
2023-02-05T06:34:48.467Z,11.52
2023-02-05T06:37:15.665Z,11.90
2023-02-05T06:39:43.753Z,11.60
2023-02-05T06:42:10.828Z,10.95
2023-02-05T06:44:37.857Z,11.95
2023-02-05T06:47:04.897Z,10.98
2023-02-05T06:49:32.096Z,10.23
2023-02-05T06:51:59.136Z,11.55
2023-02-05T06:54:26.265Z,11.40
2023-02-05T06:56:53.383Z,11.30
2023-02-05T06:59:20.416Z,11.85
2023-02-05T07:01:47.505Z,11.30
2023-02-05T07:04:14.661Z,12.52
2023-02-05T07:06:41.778Z,12.65
2023-02-05T07:09:08.817Z,12.43
2023-02-05T07:11:35.849Z,12.32
2023-02-05T07:14:03.317Z,12.35
2023-02-05T07:16:30.729Z,11.25
2023-02-05T07:19:00.721Z,12.52
2023-02-05T07:21:27.783Z,11.30
2023-02-05T07:23:54.806Z,11.30
2023-02-05T07:26:21.882Z,12.15
2023-02-05T07:28:48.891Z,11.13
2023-02-05T07:31:17.182Z,10.52
2023-02-05T07:33:44.829Z,9.95
2023-02-05T07:36:13.723Z,10.75
2023-02-05T07:38:40.808Z,10.85
2023-02-05T07:41:08.399Z,9.57
2023-02-05T07:43:35.768Z,9.77
2023-02-05T07:46:04.355Z,9.75
2023-02-05T07:48:31.764Z,7.95
2023-02-05T07:50:58.818Z,8.27
2023-02-05T07:53:26.044Z,7.97
2023-02-05T07:55:53.223Z,8.57
2023-02-05T07:58:20.493Z,7.95
2023-02-05T08:00:47.575Z,7.90
2023-02-05T08:03:14.977Z,7.78
2023-02-05T08:05:42.013Z,9.30
2023-02-05T08:08:09.054Z,8.43
2023-02-05T08:10:36.123Z,8.07
2023-02-05T08:13:03.212Z,7.70
2023-02-05T08:15:30.263Z,7.45
2023-02-05T08:17:57.289Z,7.20
2023-02-05T08:20:24.360Z,7.68
2023-02-05T08:22:51.372Z,7.88
2023-02-05T08:25:18.654Z,8.02
2023-02-05T08:27:46.181Z,7.05
2023-02-05T08:30:15.588Z,6.00
2023-02-05T08:32:42.725Z,6.65
2023-02-05T08:35:09.978Z,6.93
2023-02-05T08:37:36.980Z,6.85
2023-02-05T08:40:04.376Z,6.90
2023-02-05T08:42:31.442Z,6.88
2023-02-05T08:44:59.355Z,7.07
2023-02-05T08:47:26.444Z,7.85
2023-02-05T08:49:53.834Z,6.85
2023-02-05T08:52:20.977Z,7.95
2023-02-05T08:54:48.185Z,7.30
2023-02-05T08:57:16.513Z,7.80
2023-02-05T08:59:43.874Z,6.50
2023-02-05T09:02:14.461Z,6.63
2023-02-05T09:04:41.796Z,6.80
2023-02-05T09:07:09.000Z,6.88
2023-02-05T09:09:36.976Z,7.93
2023-02-05T09:12:04.322Z,7.38
2023-02-05T09:14:36.107Z,6.65
2023-02-05T09:17:03.913Z,6.95
2023-02-05T09:19:32.437Z,7.45
2023-02-05T09:21:59.568Z,7.50
2023-02-05T09:24:26.594Z,8.35
2023-02-05T09:26:53.627Z,7.40
2023-02-05T09:29:20.655Z,7.45
2023-02-05T09:31:47.860Z,7.90
2023-02-05T09:34:15.471Z,8.63
2023-02-05T09:36:42.678Z,8.63
2023-02-05T09:39:18.565Z,8.57
2023-02-05T09:42:00.547Z,8.73
2023-02-05T09:44:44.501Z,8.15
2023-02-05T09:47:24.226Z,9.13
2023-02-05T09:49:57.085Z,8.65
2023-02-05T09:52:33.912Z,8.95
2023-02-05T09:55:02.565Z,9.35
2023-02-05T09:57:37.761Z,8.60
2023-02-05T10:00:28.041Z,7.78
2023-02-05T10:03:02.196Z,7.47
2023-02-05T10:05:33.454Z,8.50
2023-02-05T10:08:08.507Z,7.10
2023-02-05T10:10:40.566Z,5.70
2023-02-05T10:13:25.554Z,7.82
2023-02-05T10:16:04.984Z,6.05
2023-02-05T10:18:50.747Z,7.30
2023-02-05T10:21:23.095Z,6.90
2023-02-05T10:24:04.907Z,6.47
2023-02-05T10:26:41.312Z,6.88
2023-02-05T10:29:46.695Z,6.20
2023-02-05T10:32:24.194Z,6.45
2023-02-05T10:35:03.931Z,6.05
2023-02-05T10:37:35.202Z,5.90
2023-02-05T10:40:03.769Z,5.57
2023-02-05T10:42:40.290Z,5.35
2023-02-05T10:45:16.092Z,4.63
2023-02-05T10:48:00.709Z,4.25
2023-02-05T10:50:46.396Z,4.18
2023-02-05T10:53:14.708Z,3.78
2023-02-05T10:55:41.765Z,4.40
2023-02-05T10:58:28.794Z,3.78
2023-02-05T11:00:56.066Z,4.30
2023-02-05T11:03:23.259Z,4.00
2023-02-05T11:05:50.990Z,4.43
2023-02-05T11:08:36.650Z,3.70
2023-02-05T11:11:05.492Z,3.97
2023-02-05T11:13:32.944Z,3.63
2023-02-05T11:16:05.197Z,3.55
2023-02-05T11:18:46.248Z,3.58
2023-02-05T11:21:13.653Z,3.83
2023-02-05T11:23:54.299Z,4.60
2023-02-05T11:26:23.145Z,4.70
2023-02-05T11:28:50.419Z,5.05
2023-02-05T11:31:20.583Z,4.90
2023-02-05T11:33:48.476Z,4.40
2023-02-05T11:36:25.625Z,5.20
2023-02-05T11:38:54.279Z,4.57
2023-02-05T11:41:29.262Z,4.18
2023-02-05T11:43:56.669Z,4.03
2023-02-05T11:46:25.210Z,4.47
2023-02-05T11:48:52.265Z,4.68
2023-02-05T11:51:28.922Z,3.97
2023-02-05T11:53:58.086Z,4.03
2023-02-05T11:56:25.963Z,3.33
2023-02-05T11:59:03.039Z,4.75
2023-02-05T12:01:34.954Z,4.20
2023-02-05T12:04:15.389Z,4.03
2023-02-05T12:06:46.706Z,3.67
2023-02-05T12:09:18.082Z,4.18
2023-02-05T12:12:06.862Z,3.65
2023-02-05T12:14:45.052Z,4.15
2023-02-05T12:17:15.061Z,4.45
2023-02-05T12:19:56.201Z,5.43
2023-02-05T12:22:30.457Z,4.00
2023-02-05T12:25:09.750Z,4.43
2023-02-05T12:27:45.741Z,4.15
2023-02-05T12:30:33.095Z,5.20
2023-02-05T12:33:01.053Z,3.70
2023-02-05T12:35:28.133Z,4.47
2023-02-05T12:37:55.146Z,4.57
2023-02-05T12:40:41.066Z,4.53
2023-02-05T12:43:19.145Z,5.20
2023-02-05T12:45:53.845Z,4.65
2023-02-05T12:48:20.867Z,4.68
2023-02-05T12:50:47.842Z,4.65
2023-02-05T12:53:17.952Z,4.63
2023-02-05T12:55:51.959Z,4.60
2023-02-05T12:58:20.141Z,4.72
2023-02-05T13:01:00.502Z,5.03
2023-02-05T13:03:37.426Z,9.27
2023-02-05T13:06:33.509Z,5.22
2023-02-05T13:09:15.660Z,4.35
2023-02-05T13:11:51.132Z,5.00
2023-02-05T13:14:19.996Z,41.25
2023-02-05T13:16:59.823Z,5.72
2023-02-05T13:19:26.889Z,5.95
2023-02-05T13:22:14.689Z,5.50
2023-02-05T13:25:09.799Z,5.00
2023-02-05T13:28:01.256Z,6.22
2023-02-05T13:30:40.725Z,5.18
2023-02-05T13:33:08.301Z,4.45
2023-02-05T13:35:42.177Z,5.93
2023-02-05T13:40:37.824Z,5.22
2023-02-05T13:43:16.049Z,5.30
2023-02-05T13:45:53.706Z,6.03
2023-02-05T13:48:26.951Z,6.40
2023-02-05T13:51:08.493Z,6.88
2023-02-05T13:53:50.465Z,8.40
2023-02-05T13:56:24.326Z,6.10
2023-02-05T14:01:21.714Z,6.63
2023-02-05T14:04:15.199Z,6.82
2023-02-05T14:06:43.339Z,7.28
2023-02-05T14:09:10.377Z,6.72
2023-02-05T14:11:47.516Z,7.68
2023-02-05T14:14:25.886Z,8.13
2023-02-05T14:16:54.936Z,6.97
2023-02-05T14:19:25.815Z,9.10
2023-02-05T14:22:01.191Z,7.55
2023-02-05T14:24:28.201Z,6.70
2023-02-05T14:27:00.659Z,7.45
2023-02-05T14:29:43.292Z,7.90
2023-02-05T14:32:34.498Z,6.95
2023-02-05T14:35:02.527Z,7.53
2023-02-05T14:37:36.810Z,7.53
2023-02-05T14:40:21.984Z,6.97
2023-02-05T14:42:49.595Z,7.22
2023-02-05T14:45:17.417Z,7.75
2023-02-05T14:47:44.932Z,7.93
2023-02-05T14:50:18.706Z,7.43
2023-02-05T14:55:13.275Z,8.45
2023-02-05T14:57:52.371Z,21.52
2023-02-05T15:00:22.401Z,17.90
2023-02-05T15:03:01.925Z,38.90
2023-02-05T15:05:41.001Z,28.42
2023-02-05T15:08:19.610Z,14.60
2023-02-05T15:10:49.775Z,19.55
2023-02-05T15:13:20.476Z,16.73
2023-02-05T15:16:06.050Z,17.27
2023-02-05T15:18:33.948Z,16.40
2023-02-05T15:21:02.012Z,17.67
2023-02-05T15:23:35.395Z,11.48
2023-02-05T15:26:05.281Z,11.50
2023-02-05T15:28:34.615Z,22.08
2023-02-05T15:31:41.482Z,8.90
2023-02-05T15:34:22.110Z,28.15
2023-02-05T15:36:54.874Z,10.45
2023-02-05T15:39:24.243Z,11.80
2023-02-05T15:41:52.449Z,14.73
2023-02-05T15:44:20.969Z,15.77
2023-02-05T15:46:48.548Z,15.10
2023-02-05T15:49:15.853Z,11.75
2023-02-05T15:51:43.010Z,10.40
2023-02-05T15:54:15.150Z,10.07
2023-02-05T15:56:42.579Z,12.90
2023-02-05T15:59:16.477Z,9.50
2023-02-05T16:04:22.967Z,10.20
2023-02-05T16:06:50.185Z,15.43
2023-02-05T16:09:25.029Z,14.00
2023-02-05T16:11:52.365Z,10.07
2023-02-05T16:14:20.856Z,14.82
2023-02-05T16:17:07.009Z,12.20
2023-02-05T16:19:43.207Z,11.48
2023-02-05T16:22:24.965Z,11.73
2023-02-05T16:24:54.587Z,11.38
2023-02-05T16:27:25.021Z,9.95
2023-02-05T16:29:55.810Z,8.07
2023-02-05T16:32:52.398Z,12.80
2023-02-05T16:35:39.717Z,8.93
2023-02-05T16:38:09.162Z,10.10
2023-02-05T16:40:42.959Z,8.50
2023-02-05T16:43:22.107Z,10.25
2023-02-05T16:46:07.411Z,8.50
2023-02-05T16:48:36.819Z,8.98
2023-02-05T16:51:04.432Z,8.77
2023-02-05T16:53:33.103Z,8.50
2023-02-05T16:56:02.924Z,9.23
2023-02-05T16:58:36.647Z,8.40
2023-02-05T17:01:04.223Z,8.05
2023-02-05T17:03:41.339Z,9.05
2023-02-05T17:06:12.818Z,9.05
2023-02-05T17:08:40.703Z,10.38
2023-02-05T17:11:08.520Z,9.82
2023-02-05T17:13:43.099Z,9.35
2023-02-05T17:16:30.498Z,11.05
2023-02-05T17:19:05.143Z,11.48
2023-02-05T17:21:36.324Z,9.98
2023-02-05T17:24:06.834Z,10.50
2023-02-05T17:26:37.172Z,10.88
2023-02-05T17:29:05.980Z,11.07
2023-02-05T17:31:38.136Z,11.90
2023-02-05T17:34:05.568Z,12.05
2023-02-05T17:36:32.627Z,10.38
2023-02-05T17:38:59.789Z,10.95
2023-02-05T17:41:47.439Z,9.85
2023-02-05T17:44:15.707Z,10.63
2023-02-05T17:46:43.364Z,11.02
2023-02-05T17:49:10.499Z,14.27
2023-02-05T17:51:42.419Z,12.05
2023-02-05T17:54:16.672Z,17.00
2023-02-05T17:56:44.695Z,15.93
2023-02-05T17:59:16.625Z,16.92
2023-02-05T18:01:43.648Z,16.23
2023-02-05T18:04:11.882Z,17.88
2023-02-05T18:06:39.542Z,16.50
2023-02-05T18:09:06.847Z,17.33
2023-02-05T18:11:34.190Z,15.68
2023-02-05T18:14:01.400Z,16.30
2023-02-05T18:16:28.618Z,16.15
2023-02-05T18:18:55.658Z,15.18
2023-02-05T18:21:22.903Z,16.13
2023-02-05T18:23:50.421Z,18.10
2023-02-05T18:26:17.446Z,16.27
2023-02-05T18:28:45.220Z,16.25
2023-02-05T18:31:12.356Z,17.13
2023-02-05T18:33:39.570Z,15.90
2023-02-05T18:36:11.572Z,17.27
2023-02-05T18:38:39.121Z,17.75
2023-02-05T18:41:13.289Z,18.63
2023-02-05T18:43:40.403Z,16.13
2023-02-05T18:46:12.431Z,16.90
2023-02-05T18:48:42.354Z,17.83
2023-02-05T18:51:10.398Z,16.00
2023-02-05T18:53:39.084Z,17.65
2023-02-05T18:56:13.807Z,17.77
2023-02-05T18:58:41.433Z,17.75
2023-02-05T19:01:12.776Z,18.83
2023-02-05T19:03:41.298Z,17.10
2023-02-05T19:06:09.283Z,16.35
2023-02-05T19:08:36.348Z,18.48
2023-02-05T19:11:14.224Z,17.20
2023-02-05T19:13:41.953Z,18.88
2023-02-05T19:16:12.619Z,15.35
2023-02-05T19:18:40.594Z,16.35
2023-02-05T19:21:08.374Z,15.95
2023-02-05T19:23:35.811Z,18.10
2023-02-05T19:26:06.988Z,16.50
2023-02-05T19:28:34.190Z,16.52
2023-02-05T19:31:08.861Z,14.85
2023-02-05T19:33:36.566Z,16.40
2023-02-05T19:36:04.724Z,18.00
2023-02-05T19:38:31.804Z,17.33
2023-02-05T19:41:05.332Z,17.02
2023-02-05T19:43:32.474Z,15.57
2023-02-05T19:46:03.460Z,17.35
2023-02-05T19:48:30.574Z,17.35
2023-02-05T19:50:57.654Z,15.65
2023-02-05T19:53:24.933Z,17.25
2023-02-05T19:55:52.137Z,15.80
2023-02-05T19:58:19.217Z,15.65
2023-02-05T20:00:46.257Z,17.05
2023-02-05T20:03:13.295Z,15.90
2023-02-05T20:05:40.318Z,16.95
2023-02-05T20:08:07.401Z,16.30
2023-02-05T20:10:34.687Z,18.25
2023-02-05T20:13:02.230Z,18.45
2023-02-05T20:15:29.235Z,19.55
2023-02-05T20:17:58.443Z,19.42
2023-02-05T20:20:44.953Z,18.33
2023-02-05T20:23:12.214Z,21.00
2023-02-05T20:25:39.288Z,21.40
2023-02-05T20:28:06.419Z,21.45
2023-02-05T20:30:52.549Z,20.83
2023-02-05T20:33:19.865Z,20.20
2023-02-05T20:35:47.016Z,19.13
2023-02-05T20:38:14.037Z,19.02
2023-02-05T20:40:41.124Z,16.95
2023-02-05T20:43:09.123Z,17.67
2023-02-05T20:45:36.173Z,16.80
2023-02-05T20:48:03.172Z,16.58
2023-02-05T20:50:30.164Z,16.05
2023-02-05T20:52:57.493Z,17.55
2023-02-05T20:55:24.496Z,17.50
2023-02-05T20:57:51.531Z,17.33
2023-02-05T21:00:20.927Z,17.90
2023-02-05T21:02:47.949Z,17.10
2023-02-05T21:05:15.060Z,18.73
2023-02-05T21:07:42.087Z,18.40
2023-02-05T21:10:10.747Z,17.70
2023-02-05T21:12:37.964Z,17.58
2023-02-05T21:15:05.162Z,16.63
2023-02-05T21:17:32.397Z,15.20
2023-02-05T21:19:59.468Z,14.77
2023-02-05T21:22:26.507Z,11.23
2023-02-05T21:24:53.533Z,11.68
2023-02-05T21:27:23.019Z,12.43
2023-02-05T21:29:50.940Z,12.15
2023-02-05T21:32:18.082Z,11.55
2023-02-05T21:34:45.140Z,11.57
2023-02-05T21:37:12.197Z,11.27
2023-02-05T21:39:40.902Z,11.10
2023-02-05T21:42:07.982Z,11.05
2023-02-05T21:44:35.054Z,12.05
2023-02-05T21:47:02.091Z,13.95
2023-02-05T21:49:29.094Z,12.98
2023-02-05T21:51:56.150Z,13.77
2023-02-05T21:54:25.680Z,12.63
2023-02-05T21:56:52.995Z,13.20
2023-02-05T21:59:20.014Z,12.95
2023-02-05T22:01:47.132Z,13.70
2023-02-05T22:04:16.087Z,13.90
2023-02-05T22:06:43.500Z,13.93
2023-02-05T22:09:11.855Z,12.82
2023-02-05T22:11:39.372Z,12.60
2023-02-05T22:14:06.616Z,14.25
2023-02-05T22:16:34.568Z,14.07
2023-02-05T22:19:02.000Z,12.75
2023-02-05T22:21:32.873Z,11.85
2023-02-05T22:24:00.686Z,12.45
2023-02-05T22:26:32.066Z,13.82
2023-02-05T22:29:00.044Z,13.15
2023-02-05T22:31:27.562Z,13.70
2023-02-05T22:33:54.662Z,13.13
2023-02-05T22:36:23.140Z,12.65
2023-02-05T22:38:51.012Z,13.10
2023-02-05T22:41:19.555Z,12.68
2023-02-05T22:43:46.723Z,12.95
2023-02-05T22:46:15.992Z,12.27
2023-02-05T22:48:45.983Z,11.77
2023-02-05T22:51:14.666Z,11.18
2023-02-05T22:53:42.005Z,11.18
2023-02-05T22:56:11.033Z,11.75
2023-02-05T22:58:38.996Z,11.43
2023-02-05T23:01:09.164Z,11.35
2023-02-05T23:03:36.458Z,12.10
2023-02-05T23:06:08.792Z,11.32
2023-02-05T23:08:35.809Z,10.60
2023-02-05T23:11:07.158Z,10.50
2023-02-05T23:13:34.528Z,11.05
2023-02-05T23:16:12.547Z,10.38
2023-02-05T23:18:40.162Z,10.73
2023-02-05T23:21:08.022Z,9.77
2023-02-05T23:23:35.150Z,9.85
2023-02-05T23:26:09.315Z,10.95
2023-02-05T23:28:36.694Z,9.48
2023-02-05T23:31:04.165Z,10.90
2023-02-05T23:33:31.601Z,11.25
2023-02-05T23:35:58.713Z,11.23
2023-02-05T23:38:25.774Z,10.98
2023-02-05T23:40:53.298Z,10.73
2023-02-05T23:43:21.480Z,10.63
2023-02-05T23:45:49.070Z,10.73
2023-02-05T23:48:16.148Z,9.63
2023-02-05T23:50:43.710Z,10.23
2023-02-05T23:53:11.450Z,10.88
2023-02-05T23:55:39.214Z,10.48
2023-02-05T23:58:06.510Z,9.40
